地図

経路データ

SID SEASON NUMBER BASIN SUBBASIN NAME ISO_TIME NATURE LAT LON WMO_WIND WMO_PRES WMO_AGENCY TRACK_TYPE DIST2LAND LANDFALL IFLAG USA_AGENCY USA_ATCF_ID USA_LAT USA_LON USA_RECORD USA_STATUS USA_WIND USA_PRES USA_SSHS USA_R34_NE USA_R34_SE USA_R34_SW USA_R34_NW USA_R50_NE USA_R50_SE USA_R50_SW USA_R50_NW USA_R64_NE USA_R64_SE USA_R64_SW USA_R64_NW USA_POCI USA_ROCI USA_RMW USA_EYE TOKYO_LAT TOKYO_LON TOKYO_GRADE TOKYO_WIND TOKYO_PRES TOKYO_R50_DIR TOKYO_R50_LONG TOKYO_R50_SHORT TOKYO_R30_DIR TOKYO_R30_LONG TOKYO_R30_SHORT TOKYO_LAND CMA_LAT CMA_LON CMA_CAT CMA_WIND CMA_PRES HKO_LAT HKO_LON HKO_CAT HKO_WIND HKO_PRES NEWDELHI_LAT NEWDELHI_LON NEWDELHI_GRADE NEWDELHI_WIND NEWDELHI_PRES NEWDELHI_CI NEWDELHI_DP NEWDELHI_POCI REUNION_LAT REUNION_LON REUNION_TYPE REUNION_WIND REUNION_PRES REUNION_TNUM REUNION_CI REUNION_RMW REUNION_R34_NE REUNION_R34_SE REUNION_R34_SW REUNION_R34_NW REUNION_R50_NE REUNION_R50_SE REUNION_R50_SW REUNION_R50_NW REUNION_R64_NE REUNION_R64_SE REUNION_R64_SW REUNION_R64_NW BOM_LAT BOM_LON BOM_TYPE BOM_WIND BOM_PRES BOM_TNUM BOM_CI BOM_RMW BOM_R34_NE BOM_R34_SE BOM_R34_SW BOM_R34_NW BOM_R50_NE BOM_R50_SE BOM_R50_SW BOM_R50_NW BOM_R64_NE BOM_R64_SE BOM_R64_SW BOM_R64_NW BOM_ROCI BOM_POCI BOM_EYE BOM_POS_METHOD BOM_PRES_METHOD NADI_LAT NADI_LON NADI_CAT NADI_WIND NADI_PRES WELLINGTON_LAT WELLINGTON_LON WELLINGTON_WIND WELLINGTON_PRES DS824_LAT DS824_LON DS824_STAGE DS824_WIND DS824_PRES TD9636_LAT TD9636_LON TD9636_STAGE TD9636_WIND TD9636_PRES TD9635_LAT TD9635_LON TD9635_WIND TD9635_PRES TD9635_ROCI NEUMANN_LAT NEUMANN_LON NEUMANN_CLASS NEUMANN_WIND NEUMANN_PRES MLC_LAT MLC_LON MLC_CLASS MLC_WIND MLC_PRES USA_GUST BOM_GUST BOM_GUST_PER REUNION_GUST REUNION_GUST_PER USA_SEAHGT USA_SEARAD_NE USA_SEARAD_SE USA_SEARAD_SW USA_SEARAD_NW STORM_SPEED STORM_DIR
1866305S09073 1867 27 SI MM NOT_NAMED 1866-11-01 06:00:00 NR -8.50000 72.6000 reunion spur-split 1835 1835 _____O________ -1 -8.50000 72.6000 99 9.90000 2 222
1866305S09073 1867 27 SI MM NOT_NAMED 1866-11-01 09:00:00 NR -8.59341 72.5237 spur-split 1850 1850 _____P________ -1 -8.59341 72.5237 99 2 219
1866305S09073 1867 27 SI MM NOT_NAMED 1866-11-01 12:00:00 NR -8.69219 72.4464 spur-split 1865 1865 _____P________ -1 -8.69219 72.4464 99 3 217
1866305S09073 1867 27 SI MM NOT_NAMED 1866-11-01 15:00:00 NR -8.80174 72.3669 spur-split 1875 1875 _____P________ -1 -8.80174 72.3669 99 3 214
1866305S09073 1867 27 SI MM NOT_NAMED 1866-11-01 18:00:00 NR -8.92746 72.2842 spur-split 1890 1890 _____P________ -1 -8.92746 72.2842 99 3 212
1866305S09073 1867 27 SI MM NOT_NAMED 1866-11-01 21:00:00 NR -9.07474 72.1973 spur-split 1915 1915 _____P________ -1 -9.07474 72.1973 99 4 209
1866305S09073 1867 27 SI MM NOT_NAMED 1866-11-02 00:00:00 NR -9.24899 72.1050 spur-split 1930 1930 _____P________ -1 -9.24899 72.1050 99 4 207
1866305S09073 1867 27 SI MM NOT_NAMED 1866-11-02 03:00:00 NR -9.45561 72.0063 spur-split 1940 1917 _____P________ -1 -9.45561 72.0063 99 5 204
1866305S09073 1867 27 SI MM NOT_NAMED 1866-11-02 06:00:00 NR -9.70000 71.9000 reunion spur-split 1917 1887 _____O________ -1 -9.70000 71.9000 99 9.90000 6 202
1866305S09073 1867 27 SI MM NOT_NAMED 1866-11-02 09:00:00 NR -9.98548 71.7860 spur-split 1887 1858 _____P________ -1 -9.98548 71.7860 99 7 201
1866305S09073 1867 27 SI MM NOT_NAMED 1866-11-02 12:00:00 NR -10.3071 71.6675 spur-split 1858 1829 _____P________ -1 -10.3071 71.6675 99 7 199
1866305S09073 1867 27 SI MM NOT_NAMED 1866-11-02 15:00:00 NR -10.6577 71.5487 spur-split 1813 1785 _____P________ -1 -10.6577 71.5487 99 8 198
1866305S09073 1867 27 SI MM NOT_NAMED 1866-11-02 18:00:00 NR -11.0304 71.4339 spur-split 1785 1749 _____P________ -1 -11.0304 71.4339 99 8 196
1866305S09073 1867 27 SI MM NOT_NAMED 1866-11-02 21:00:00 NR -11.4179 71.3273 spur-split 1749 1715 _____P________ -1 -11.4179 71.3273 99 8 194
1866305S09073 1867 27 SI MM NOT_NAMED 1866-11-03 00:00:00 NR -11.8134 71.2332 spur-split 1715 1690 _____P________ -1 -11.8134 71.2332 99 8 192
1866305S09073 1867 27 SI MM NOT_NAMED 1866-11-03 03:00:00 NR -12.2098 71.1560 spur-split 1690 1656 _____P________ -1 -12.2098 71.1560 99 8 189
1866305S09073 1867 27 SI MM NOT_NAMED 1866-11-03 06:00:00 NR -12.6000 71.1000 reunion spur-split 1656 1633 _____O________ -1 -12.6000 71.1000 99 9.90000 8 186
1866305S09073 1867 27 SI MM NOT_NAMED 1866-11-03 09:00:00 NR -12.9832 71.0704 spur-split 1633 1616 _____P________ -1 -12.9832 71.0704 99 8 183
1866305S09073 1867 27 SI MM NOT_NAMED 1866-11-03 12:00:00 NR -13.3678 71.0612 spur-split 1610 1594 _____P________ -1 -13.3678 71.0612 99 8 0
1866305S09073 1867 27 SI MM NOT_NAMED 1866-11-03 15:00:00 NR -13.7485 71.0698 spur-split 1594 1573 _____P________ -1 -13.7485 71.0698 99 8 177
1866305S09073 1867 27 SI MM NOT_NAMED 1866-11-03 18:00:00 NR -14.1196 71.0941 spur-split 1573 1552 _____P________ -1 -14.1196 71.0941 99 7 176
1866305S09073 1867 27 SI MM NOT_NAMED 1866-11-03 21:00:00 NR -14.4759 71.1316 spur-split 1552 1547 _____P________ -1 -14.4759 71.1316 99 7 173
1866305S09073 1867 27 SI MM NOT_NAMED 1866-11-04 00:00:00 NR -14.8117 71.1801 spur-split 1547 1533 _____P________ -1 -14.8117 71.1801 99 7 171
1866305S09073 1867 27 SI MM NOT_NAMED 1866-11-04 03:00:00 NR -15.1215 71.2370 spur-split 1533 1528 _____P________ -1 -15.1215 71.2370 99 6 169
1866305S09073 1867 27 SI MM NOT_NAMED 1866-11-04 06:00:00 NR -15.4000 71.3000 reunion spur-split 1529 1521 _____O________ -1 -15.4000 71.3000 99 9.90000 5 166
1866305S09073 1867 27 SI MM NOT_NAMED 1866-11-04 09:00:00 NR -15.6432 71.3670 spur-split 1531 1522 _____P________ -1 -15.6432 71.3670 99 5 164
1866305S09073 1867 27 SI MM NOT_NAMED 1866-11-04 12:00:00 NR -15.8542 71.4372 spur-split 1518 1518 _____P________ -1 -15.8542 71.4372 99 4 161
1866305S09073 1867 27 SI MM NOT_NAMED 1866-11-04 15:00:00 NR -16.0374 71.5101 spur-split 1524 1520 _____P________ -1 -16.0374 71.5101 99 4 158
1866305S09073 1867 27 SI MM NOT_NAMED 1866-11-04 18:00:00 NR -16.1977 71.5853 spur-split 1527 1523 _____P________ -1 -16.1977 71.5853 99 3 154
1866305S09073 1867 27 SI MM NOT_NAMED 1866-11-04 21:00:00 NR -16.3394 71.6623 spur-split 1533 1526 _____P________ -1 -16.3394 71.6623 99 3 152
1866305S09073 1867 27 SI MM NOT_NAMED 1866-11-05 00:00:00 NR -16.4673 71.7407 spur-split 1526 1526 _____P________ -1 -16.4673 71.7407 99 3 148
1866305S09073 1867 27 SI MM NOT_NAMED 1866-11-05 03:00:00 NR -16.5860 71.8201 spur-split 1533 1533 _____P________ -1 -16.5860 71.8201 99 3 146
1866305S09073 1867 27 SI MM NOT_NAMED 1866-11-05 06:00:00 NR -16.7000 71.9000 reunion spur-split 1539 _____O________ -1 -16.7000 71.9000 99 9.90000 3 146

IBTrACS Databaseについて

本データベースは、米国NOAAが公開する1842年以降の世界の熱帯低気圧のベストトラックデータアーカイブInternational Best Track Archive for Climate Stewardship (IBTrACS)を、ウェブで閲覧しやすい形式に変換したものです。

最終更新日:2021-10-25